createdAt,value
2023-05-15T00:00:55.072Z,999.27
2023-05-15T00:01:55.034Z,999.28
2023-05-15T00:02:55.103Z,999.20
2023-05-15T00:03:55.186Z,999.22
2023-05-15T00:04:55.036Z,999.21
2023-05-15T00:05:55.007Z,999.23
2023-05-15T00:06:55.032Z,999.20
2023-05-15T00:07:54.972Z,999.18
2023-05-15T00:08:54.957Z,999.20
2023-05-15T00:09:54.943Z,999.13
2023-05-15T00:11:01.390Z,999.12
2023-05-15T00:11:55.949Z,999.16
2023-05-15T00:12:54.931Z,999.10
2023-05-15T00:13:54.933Z,999.11
2023-05-15T00:14:54.912Z,999.14
2023-05-15T00:15:54.902Z,999.09
2023-05-15T00:16:54.885Z,999.13
2023-05-15T00:17:54.916Z,999.18
2023-05-15T00:18:54.899Z,999.19
2023-05-15T00:19:54.865Z,999.20
2023-05-15T00:20:54.870Z,999.18
2023-05-15T00:21:54.827Z,999.17
2023-05-15T00:22:54.798Z,999.14
2023-05-15T00:23:54.800Z,999.14
2023-05-15T00:24:54.801Z,999.14
2023-05-15T00:25:54.814Z,999.13
2023-05-15T00:26:54.847Z,999.13
2023-05-15T00:27:54.766Z,999.17
2023-05-15T00:28:54.757Z,999.15
2023-05-15T00:29:54.755Z,999.11
2023-05-15T00:30:54.747Z,999.10
2023-05-15T00:31:54.904Z,999.14
2023-05-15T00:32:54.755Z,999.15
2023-05-15T00:33:54.709Z,999.17
2023-05-15T00:34:54.680Z,999.16
2023-05-15T00:35:54.679Z,999.14
2023-05-15T00:36:54.657Z,999.10
2023-05-15T00:37:54.667Z,999.09
2023-05-15T00:38:54.654Z,999.10
2023-05-15T00:39:54.666Z,999.07
2023-05-15T00:40:54.647Z,999.05
2023-05-15T00:41:54.616Z,999.04
2023-05-15T00:42:54.592Z,999.02
2023-05-15T00:43:54.575Z,999.01
2023-05-15T00:44:54.591Z,999.00
2023-05-15T00:45:54.578Z,998.98
2023-05-15T00:46:54.656Z,998.94
2023-05-15T00:47:54.666Z,998.94
2023-05-15T00:48:54.557Z,998.93
2023-05-15T00:49:54.528Z,998.98
2023-05-15T00:50:54.508Z,998.96
2023-05-15T00:51:54.491Z,998.93
2023-05-15T00:52:54.488Z,998.89
2023-05-15T00:53:54.570Z,998.87
2023-05-15T00:54:54.475Z,998.86
2023-05-15T00:55:54.469Z,998.81
2023-05-15T00:56:54.436Z,998.91
2023-05-15T00:57:54.465Z,998.92
2023-05-15T00:58:54.448Z,998.84
2023-05-15T00:59:54.429Z,998.85
2023-05-15T01:00:54.439Z,998.81
2023-05-15T01:01:54.400Z,998.90
2023-05-15T01:02:54.522Z,998.90
2023-05-15T01:03:54.415Z,998.87
2023-05-15T01:04:54.353Z,998.87
2023-05-15T01:05:54.334Z,998.87
2023-05-15T01:06:54.327Z,998.87
2023-05-15T01:07:54.315Z,998.86
2023-05-15T01:08:54.312Z,998.88
2023-05-15T01:09:54.338Z,998.83
2023-05-15T01:10:54.297Z,998.83
2023-05-15T01:11:54.279Z,998.87
2023-05-15T01:12:54.276Z,998.84
2023-05-15T01:13:54.244Z,998.80
2023-05-15T01:14:54.234Z,998.76
2023-05-15T01:15:54.237Z,998.79
2023-05-15T01:16:54.229Z,998.73
2023-05-15T01:17:54.246Z,998.73
2023-05-15T01:18:54.304Z,998.69
2023-05-15T01:19:54.550Z,998.67
2023-05-15T01:20:54.169Z,998.68
2023-05-15T01:21:54.173Z,998.59
2023-05-15T01:22:54.174Z,998.59
2023-05-15T01:23:54.138Z,998.62
2023-05-15T01:24:54.149Z,998.68
2023-05-15T01:25:54.148Z,998.61
2023-05-15T01:26:54.133Z,998.62
2023-05-15T01:27:54.103Z,998.67
2023-05-15T01:28:54.136Z,998.57
2023-05-15T01:29:54.072Z,998.58
2023-05-15T01:30:54.086Z,998.61
2023-05-15T01:31:54.133Z,998.59
2023-05-15T01:32:54.091Z,998.57
2023-05-15T01:33:54.087Z,998.57
2023-05-15T01:34:54.074Z,998.59
2023-05-15T01:35:54.056Z,998.65
2023-05-15T01:36:54.005Z,998.59
2023-05-15T01:37:54.030Z,998.59
2023-05-15T01:38:53.979Z,998.57
2023-05-15T01:39:54.009Z,998.59
2023-05-15T01:40:53.984Z,998.53
2023-05-15T01:41:53.970Z,998.53
2023-05-15T01:42:53.928Z,998.54
2023-05-15T01:43:53.912Z,998.53
2023-05-15T01:44:53.923Z,998.56
2023-05-15T01:45:53.924Z,998.49
2023-05-15T01:46:53.989Z,998.51
2023-05-15T01:47:53.918Z,998.44
2023-05-15T01:48:53.868Z,998.44
2023-05-15T01:49:53.862Z,998.47
2023-05-15T01:50:53.868Z,998.48
2023-05-15T01:51:53.826Z,998.43
2023-05-15T01:52:53.854Z,998.44
2023-05-15T01:53:53.814Z,998.41
2023-05-15T01:54:53.798Z,998.45
2023-05-15T01:55:53.815Z,998.45
2023-05-15T01:56:53.797Z,998.36
2023-05-15T01:57:53.793Z,998.36
2023-05-15T01:58:54.304Z,998.37
2023-05-15T01:59:53.739Z,998.41
2023-05-15T02:00:53.749Z,998.42
2023-05-15T02:01:53.802Z,998.37
2023-05-15T02:02:53.747Z,998.32
2023-05-15T02:03:53.781Z,998.32
2023-05-15T02:04:53.677Z,998.30
2023-05-15T02:05:53.686Z,998.29
2023-05-15T02:06:53.773Z,998.31
2023-05-15T02:07:53.664Z,998.24
2023-05-15T02:08:53.662Z,998.28
2023-05-15T02:09:53.630Z,998.25
2023-05-15T02:10:53.621Z,998.30
2023-05-15T02:11:53.602Z,998.24
2023-05-15T02:13:01.217Z,998.27
2023-05-15T02:13:53.592Z,998.21
2023-05-15T02:14:53.588Z,998.25
2023-05-15T02:15:53.585Z,998.23
2023-05-15T02:16:53.553Z,998.23
2023-05-15T02:17:53.586Z,998.18
2023-05-15T02:18:53.637Z,998.22
2023-05-15T02:19:53.530Z,998.18
2023-05-15T02:20:53.507Z,998.22
2023-05-15T02:21:53.546Z,998.20
2023-05-15T02:22:53.500Z,998.20
2023-05-15T02:23:53.480Z,998.14
2023-05-15T02:24:53.469Z,998.14
2023-05-15T02:25:53.474Z,998.21
2023-05-15T02:26:53.465Z,998.15
2023-05-15T02:27:53.439Z,998.17
2023-05-15T02:28:53.486Z,998.18
2023-05-15T02:29:53.421Z,998.19
2023-05-15T02:30:53.398Z,998.16
2023-05-15T02:31:53.500Z,998.16
2023-05-15T02:32:53.398Z,998.19
2023-05-15T02:33:53.364Z,998.11
2023-05-15T02:34:53.374Z,998.09
2023-05-15T02:35:53.370Z,998.12
2023-05-15T02:36:53.346Z,998.12
2023-05-15T02:37:53.341Z,998.13
2023-05-15T02:38:53.401Z,998.04
2023-05-15T02:39:53.297Z,998.09
2023-05-15T02:40:53.325Z,998.07
2023-05-15T02:41:53.303Z,998.02
2023-05-15T02:42:53.294Z,998.05
2023-05-15T02:43:53.272Z,998.06
2023-05-15T02:44:53.238Z,997.99
2023-05-15T02:45:53.277Z,997.97
2023-05-15T02:46:53.278Z,997.96
2023-05-15T02:47:53.271Z,997.91
2023-05-15T02:48:53.226Z,997.92
2023-05-15T02:49:53.187Z,997.96
2023-05-15T02:50:53.181Z,997.89
2023-05-15T02:51:53.171Z,997.86
2023-05-15T02:52:53.172Z,997.84
2023-05-15T02:53:53.157Z,997.90
2023-05-15T02:54:53.150Z,997.90
2023-05-15T02:55:53.152Z,997.87
2023-05-15T02:56:53.109Z,997.84
2023-05-15T02:57:53.100Z,997.87
2023-05-15T02:58:53.108Z,997.88
2023-05-15T02:59:53.087Z,997.81
2023-05-15T03:00:53.135Z,997.81
2023-05-15T03:01:53.050Z,997.82
2023-05-15T03:02:53.053Z,997.78
2023-05-15T03:03:53.075Z,997.87
2023-05-15T03:04:53.018Z,997.84
2023-05-15T03:05:53.022Z,997.81
2023-05-15T03:06:53.018Z,997.80
2023-05-15T03:07:52.982Z,997.84
2023-05-15T03:08:52.969Z,997.82
2023-05-15T03:09:53.318Z,997.84
2023-05-15T03:10:52.998Z,997.85
2023-05-15T03:11:52.956Z,997.86
2023-05-15T03:12:52.957Z,997.87
2023-05-15T03:13:52.915Z,997.86
2023-05-15T03:14:52.902Z,997.83
2023-05-15T03:15:52.925Z,997.88
2023-05-15T03:16:52.950Z,997.92
2023-05-15T03:17:52.961Z,997.87
2023-05-15T03:18:52.905Z,997.86
2023-05-15T03:19:52.857Z,997.84
2023-05-15T03:20:52.864Z,997.80
2023-05-15T03:21:52.860Z,997.86
2023-05-15T03:22:52.839Z,997.81
2023-05-15T03:23:52.841Z,997.83
2023-05-15T03:24:52.794Z,997.82
2023-05-15T03:25:52.847Z,997.75
2023-05-15T03:26:52.793Z,997.77
2023-05-15T03:27:52.813Z,997.76
2023-05-15T03:28:52.765Z,997.80
2023-05-15T03:29:52.750Z,997.77
2023-05-15T03:30:52.815Z,997.72
2023-05-15T03:31:52.805Z,997.76
2023-05-15T03:32:52.734Z,997.77
2023-05-15T03:33:52.733Z,997.77
2023-05-15T03:34:52.712Z,997.76
2023-05-15T03:35:52.692Z,997.72
2023-05-15T03:36:52.677Z,997.78
2023-05-15T03:37:52.665Z,997.74
2023-05-15T03:38:52.649Z,997.78
2023-05-15T03:39:52.675Z,997.78
2023-05-15T03:40:52.631Z,997.76
2023-05-15T03:41:52.608Z,997.72
2023-05-15T03:42:52.616Z,997.70
2023-05-15T03:43:52.614Z,997.70
2023-05-15T03:44:52.584Z,997.69
2023-05-15T03:45:52.589Z,997.66
2023-05-15T03:46:52.645Z,997.68
2023-05-15T03:47:52.703Z,997.67
2023-05-15T03:48:52.545Z,997.70
2023-05-15T03:49:52.518Z,997.73
2023-05-15T03:50:52.522Z,997.67
2023-05-15T03:51:52.552Z,997.66
2023-05-15T03:52:52.502Z,997.68
2023-05-15T03:53:52.475Z,997.68
2023-05-15T03:54:52.474Z,997.68
2023-05-15T03:55:52.454Z,997.64
2023-05-15T03:56:52.462Z,997.66
2023-05-15T03:57:52.459Z,997.62
2023-05-15T03:58:52.441Z,997.61
2023-05-15T03:59:52.409Z,997.67
2023-05-15T04:00:52.422Z,997.71
2023-05-15T04:02:04.432Z,997.70
2023-05-15T04:02:53.436Z,997.65
2023-05-15T04:03:52.381Z,997.63
2023-05-15T04:04:52.432Z,997.64
2023-05-15T04:05:52.393Z,997.62
2023-05-15T04:06:52.337Z,997.65
2023-05-15T04:07:52.337Z,997.64
2023-05-15T04:08:52.328Z,997.63
2023-05-15T04:09:52.305Z,997.67
2023-05-15T04:10:52.311Z,997.65
2023-05-15T04:11:52.276Z,997.60
2023-05-15T04:12:52.308Z,997.64
2023-05-15T04:13:52.279Z,997.65
2023-05-15T04:14:52.274Z,997.69
2023-05-15T04:15:52.244Z,997.64
2023-05-15T04:16:52.288Z,997.63
2023-05-15T04:17:52.277Z,997.64
2023-05-15T04:18:52.276Z,997.68
2023-05-15T04:19:52.202Z,997.62
2023-05-15T04:20:52.222Z,997.66
2023-05-15T04:21:52.193Z,997.67
2023-05-15T04:22:52.159Z,997.62
2023-05-15T04:23:52.145Z,997.66
2023-05-15T04:24:52.144Z,997.61
2023-05-15T04:25:52.125Z,997.62
2023-05-15T04:26:52.178Z,997.62
2023-05-15T04:27:52.116Z,997.66
2023-05-15T04:29:02.789Z,997.68
2023-05-15T04:29:53.100Z,997.67
2023-05-15T04:30:52.110Z,997.65
2023-05-15T04:31:52.118Z,997.71
2023-05-15T04:32:52.159Z,997.65
2023-05-15T04:33:52.037Z,997.68
2023-05-15T04:34:52.040Z,997.64
2023-05-15T04:35:52.028Z,997.68
2023-05-15T04:36:52.016Z,997.63
2023-05-15T04:37:52.040Z,997.60
2023-05-15T04:38:51.993Z,997.66
2023-05-15T04:39:52.049Z,997.65
2023-05-15T04:40:51.956Z,997.62
2023-05-15T04:41:51.955Z,997.60
2023-05-15T04:42:51.963Z,997.60
2023-05-15T04:43:51.929Z,997.59
2023-05-15T04:44:51.921Z,997.62
2023-05-15T04:45:51.964Z,997.59
2023-05-15T04:46:52.006Z,997.60
2023-05-15T04:47:51.919Z,997.58
2023-05-15T04:48:51.870Z,997.63
2023-05-15T04:49:51.869Z,997.51
2023-05-15T04:50:51.878Z,997.51
2023-05-15T04:51:51.844Z,997.50
2023-05-15T04:52:51.843Z,997.51
2023-05-15T04:53:51.833Z,997.52
2023-05-15T04:54:51.803Z,997.52
2023-05-15T04:55:51.809Z,997.54
2023-05-15T04:56:51.845Z,997.51
2023-05-15T04:57:51.773Z,997.46
2023-05-15T04:58:51.757Z,997.39
2023-05-15T04:59:51.763Z,997.44
2023-05-15T05:00:51.735Z,997.45
2023-05-15T05:01:51.759Z,997.47
2023-05-15T05:02:51.802Z,997.42
2023-05-15T05:03:51.815Z,997.46
2023-05-15T05:04:51.717Z,997.46
2023-05-15T05:05:51.688Z,997.49
2023-05-15T05:06:51.676Z,997.47
2023-05-15T05:07:51.673Z,997.49
2023-05-15T05:08:51.657Z,997.47
2023-05-15T05:09:51.658Z,997.51
2023-05-15T05:10:51.637Z,997.42
2023-05-15T05:11:51.632Z,997.41
2023-05-15T05:12:51.611Z,997.44
2023-05-15T05:13:51.607Z,997.43
2023-05-15T05:14:51.582Z,997.37
2023-05-15T05:15:51.624Z,997.38
2023-05-15T05:16:51.563Z,997.35
2023-05-15T05:17:51.564Z,997.35
2023-05-15T05:18:51.591Z,997.35
2023-05-15T05:19:51.605Z,997.38
2023-05-15T05:20:51.526Z,997.41
2023-05-15T05:21:51.521Z,997.36
2023-05-15T05:22:51.499Z,997.33
2023-05-15T05:23:51.483Z,997.34
2023-05-15T05:24:51.489Z,997.37
2023-05-15T05:25:51.498Z,997.36
2023-05-15T05:26:51.473Z,997.35
2023-05-15T05:27:51.466Z,997.35
2023-05-15T05:28:51.440Z,997.34
2023-05-15T05:29:51.445Z,997.32
2023-05-15T05:30:51.418Z,997.37
2023-05-15T05:31:51.519Z,997.31
2023-05-15T05:32:51.416Z,997.29
2023-05-15T05:33:51.377Z,997.35
2023-05-15T05:34:51.419Z,997.35
2023-05-15T05:35:51.366Z,997.31
2023-05-15T05:36:51.364Z,997.32
2023-05-15T05:37:51.376Z,997.31
2023-05-15T05:38:51.330Z,997.31
2023-05-15T05:39:51.320Z,997.29
2023-05-15T05:40:51.300Z,997.31
2023-05-15T05:41:51.320Z,997.36
2023-05-15T05:42:51.294Z,997.33
2023-05-15T05:43:51.294Z,997.35
2023-05-15T05:44:51.273Z,997.36
2023-05-15T05:45:51.240Z,997.29
2023-05-15T05:46:51.272Z,997.29
2023-05-15T05:47:51.282Z,997.26
2023-05-15T05:48:51.292Z,997.34
2023-05-15T05:49:51.206Z,997.32
2023-05-15T05:50:51.237Z,997.33
2023-05-15T05:51:51.192Z,997.32
2023-05-15T05:52:51.160Z,997.35
2023-05-15T05:53:51.169Z,997.34
2023-05-15T05:54:51.230Z,997.32
2023-05-15T05:55:51.137Z,997.28
2023-05-15T05:56:51.218Z,997.34
2023-05-15T05:57:51.113Z,997.36
2023-05-15T05:58:51.103Z,997.30
2023-05-15T05:59:51.134Z,997.32
2023-05-15T06:00:51.123Z,997.39
2023-05-15T06:01:51.196Z,997.31
2023-05-15T06:02:51.238Z,997.27
2023-05-15T06:03:51.094Z,997.29
2023-05-15T06:04:51.039Z,997.32
2023-05-15T06:05:51.038Z,997.30
2023-05-15T06:06:51.112Z,997.29
2023-05-15T06:07:50.998Z,997.28
2023-05-15T06:08:51.024Z,997.29
2023-05-15T06:09:50.977Z,997.30
2023-05-15T06:10:50.973Z,997.24
2023-05-15T06:11:50.974Z,997.23
2023-05-15T06:12:50.949Z,997.29
2023-05-15T06:13:50.963Z,997.27
2023-05-15T06:14:50.961Z,997.27
2023-05-15T06:15:50.910Z,997.21
2023-05-15T06:16:50.945Z,997.24
2023-05-15T06:17:50.917Z,997.24
2023-05-15T06:18:50.922Z,997.25
2023-05-15T06:19:50.871Z,997.22
2023-05-15T06:20:50.885Z,997.18
2023-05-15T06:21:50.864Z,997.15
2023-05-15T06:22:50.864Z,997.18
2023-05-15T06:23:50.821Z,997.17
2023-05-15T06:24:50.816Z,997.15
2023-05-15T06:25:50.838Z,997.14
2023-05-15T06:26:52.357Z,997.09
2023-05-15T06:27:50.809Z,997.18
2023-05-15T06:28:50.780Z,997.15
2023-05-15T06:29:50.784Z,997.13
2023-05-15T06:30:50.818Z,997.12
2023-05-15T06:31:50.777Z,997.13
2023-05-15T06:32:50.886Z,997.12
2023-05-15T06:33:50.716Z,997.07
2023-05-15T06:34:50.714Z,997.08
2023-05-15T06:35:50.698Z,997.12
2023-05-15T06:36:50.678Z,997.10
2023-05-15T06:37:50.705Z,997.04
2023-05-15T06:38:50.750Z,997.10
2023-05-15T06:39:50.657Z,997.11
2023-05-15T06:40:50.665Z,997.10
2023-05-15T06:41:50.629Z,997.08
2023-05-15T06:42:50.618Z,997.06
2023-05-15T06:43:50.619Z,997.04
2023-05-15T06:44:50.616Z,997.05
2023-05-15T06:45:50.599Z,997.05
2023-05-15T06:46:50.680Z,997.06
2023-05-15T06:47:50.605Z,997.05
2023-05-15T06:48:50.564Z,997.07
2023-05-15T06:49:50.548Z,997.09
2023-05-15T06:50:50.572Z,997.05
2023-05-15T06:51:50.535Z,997.08
2023-05-15T06:52:50.506Z,997.06
2023-05-15T06:53:50.534Z,997.08
2023-05-15T06:54:50.656Z,997.05
2023-05-15T06:55:50.482Z,996.97
2023-05-15T06:56:50.474Z,997.03
2023-05-15T06:57:50.477Z,997.02
2023-05-15T06:58:50.457Z,997.00
2023-05-15T06:59:50.433Z,997.00
2023-05-15T07:00:50.642Z,996.99
2023-05-15T07:01:50.546Z,997.03
2023-05-15T07:02:50.477Z,997.04
2023-05-15T07:03:50.406Z,996.99
2023-05-15T07:04:50.430Z,996.97
2023-05-15T07:05:50.369Z,997.00
2023-05-15T07:06:50.368Z,997.01
2023-05-15T07:07:50.375Z,996.94
2023-05-15T07:08:50.346Z,996.91
2023-05-15T07:09:50.347Z,996.96
2023-05-15T07:10:50.385Z,996.90
2023-05-15T07:11:50.304Z,996.95
2023-05-15T07:12:50.307Z,996.90
2023-05-15T07:13:50.828Z,996.87
2023-05-15T07:14:50.390Z,996.86
2023-05-15T07:15:50.273Z,996.86
2023-05-15T07:16:50.293Z,996.83
2023-05-15T07:17:50.336Z,996.85
2023-05-15T07:18:50.304Z,996.89
2023-05-15T07:19:50.226Z,996.79
2023-05-15T07:20:50.227Z,996.88
2023-05-15T07:21:50.220Z,996.82
2023-05-15T07:22:56.136Z,996.86
2023-05-15T07:23:51.443Z,996.83
2023-05-15T07:24:50.162Z,996.85
2023-05-15T07:25:50.153Z,996.87
2023-05-15T07:26:58.201Z,996.83
2023-05-15T07:27:51.183Z,996.89
2023-05-15T07:28:50.120Z,996.79
2023-05-15T07:29:50.109Z,996.79
2023-05-15T07:30:50.120Z,996.79
2023-05-15T07:31:50.086Z,996.79
2023-05-15T07:32:50.266Z,996.79
2023-05-15T07:33:50.103Z,996.77
2023-05-15T07:34:50.054Z,996.78
2023-05-15T07:35:50.110Z,996.75
2023-05-15T07:36:50.037Z,996.79
2023-05-15T07:37:50.072Z,996.67
2023-05-15T07:38:50.043Z,996.80
2023-05-15T07:39:50.058Z,996.75
2023-05-15T07:40:49.987Z,996.73
2023-05-15T07:41:50.004Z,996.81
2023-05-15T07:42:50.243Z,996.71
2023-05-15T07:43:49.968Z,996.75
2023-05-15T07:44:49.970Z,996.74
2023-05-15T07:45:49.994Z,996.70
2023-05-15T07:46:49.920Z,996.76
2023-05-15T07:47:49.957Z,996.82
2023-05-15T07:48:49.901Z,996.78
2023-05-15T07:49:49.907Z,996.72
2023-05-15T07:50:49.900Z,996.80
2023-05-15T07:51:49.863Z,996.80
2023-05-15T07:52:49.858Z,996.77
2023-05-15T07:53:49.851Z,996.76
2023-05-15T07:54:49.851Z,996.78
2023-05-15T07:55:49.826Z,996.71
2023-05-15T07:56:49.827Z,996.69
2023-05-15T07:57:53.496Z,996.69
2023-05-15T07:58:49.828Z,996.67
2023-05-15T07:59:49.809Z,996.65
2023-05-15T08:00:49.775Z,996.61
2023-05-15T08:01:49.755Z,996.66
2023-05-15T08:02:49.917Z,996.66
2023-05-15T08:03:49.834Z,996.61
2023-05-15T08:04:49.746Z,996.62
2023-05-15T08:05:49.744Z,996.63
2023-05-15T08:06:49.713Z,996.58
2023-05-15T08:07:49.724Z,996.58
2023-05-15T08:08:49.701Z,996.72
2023-05-15T08:09:49.668Z,996.59
2023-05-15T08:10:49.655Z,996.65
2023-05-15T08:11:49.664Z,996.59
2023-05-15T08:12:49.637Z,996.62
2023-05-15T08:13:49.684Z,996.61
2023-05-15T08:14:49.715Z,996.59
2023-05-15T08:15:49.643Z,996.49
2023-05-15T08:16:49.625Z,996.53
2023-05-15T08:17:49.620Z,996.53
2023-05-15T08:18:49.595Z,996.50
2023-05-15T08:19:49.590Z,996.47
2023-05-15T08:20:49.617Z,996.48
2023-05-15T08:21:49.554Z,996.54
2023-05-15T08:22:49.527Z,996.53
2023-05-15T08:23:53.472Z,996.50
2023-05-15T08:24:49.508Z,996.52
2023-05-15T08:25:49.485Z,996.52
2023-05-15T08:26:49.492Z,996.49
2023-05-15T08:27:49.475Z,996.54
2023-05-15T08:28:49.478Z,996.49
2023-05-15T08:29:49.449Z,996.49
2023-05-15T08:30:49.590Z,996.55
2023-05-15T08:31:49.527Z,996.54
2023-05-15T08:32:49.537Z,996.47
2023-05-15T08:33:49.408Z,996.43
2023-05-15T08:34:49.408Z,996.43
2023-05-15T08:35:49.401Z,996.39
2023-05-15T08:36:49.384Z,996.39
2023-05-15T08:37:49.408Z,996.41
2023-05-15T08:38:49.348Z,996.38
2023-05-15T08:39:49.372Z,996.38
2023-05-15T08:40:49.343Z,996.38
2023-05-15T08:41:49.322Z,996.38
2023-05-15T08:42:49.315Z,996.39
2023-05-15T08:43:49.287Z,996.35
2023-05-15T08:44:49.299Z,996.34
2023-05-15T08:45:49.280Z,996.30
2023-05-15T08:46:49.381Z,996.27
2023-05-15T08:47:49.369Z,996.30
2023-05-15T08:48:49.283Z,996.33
2023-05-15T08:49:49.258Z,996.31
2023-05-15T08:50:49.228Z,996.36
2023-05-15T08:51:49.214Z,996.36
2023-05-15T08:52:49.192Z,996.31
2023-05-15T08:53:49.231Z,996.33
2023-05-15T08:54:49.172Z,996.30
2023-05-15T08:55:49.175Z,996.25
2023-05-15T08:56:49.167Z,996.29
2023-05-15T08:57:49.163Z,996.31
2023-05-15T08:58:49.127Z,996.26
2023-05-15T08:59:49.150Z,996.26
2023-05-15T09:00:49.132Z,996.23
2023-05-15T09:01:49.158Z,996.30
2023-05-15T09:02:49.187Z,996.25
2023-05-15T09:03:49.159Z,996.31
2023-05-15T09:04:49.062Z,996.24
2023-05-15T09:05:49.085Z,996.29
2023-05-15T09:06:49.072Z,996.24
2023-05-15T09:07:49.027Z,996.18
2023-05-15T09:08:49.041Z,996.23
2023-05-15T09:09:49.038Z,996.21
2023-05-15T09:10:49.016Z,996.18
2023-05-15T09:11:49.020Z,996.18
2023-05-15T09:12:48.975Z,996.16
2023-05-15T09:13:48.971Z,996.17
2023-05-15T09:14:48.981Z,996.20
2023-05-15T09:15:48.938Z,996.18
2023-05-15T09:16:48.984Z,996.14
2023-05-15T09:17:49.022Z,996.19
2023-05-15T09:18:49.106Z,996.16
2023-05-15T09:19:48.916Z,996.17
2023-05-15T09:20:48.896Z,996.13
2023-05-15T09:21:48.879Z,996.10
2023-05-15T09:22:48.876Z,996.20
2023-05-15T09:23:48.888Z,996.14
2023-05-15T09:24:48.855Z,996.11
2023-05-15T09:25:48.852Z,996.12
2023-05-15T09:26:48.846Z,996.14
2023-05-15T09:27:48.818Z,996.16
2023-05-15T09:28:48.826Z,996.12
2023-05-15T09:29:48.848Z,996.07
2023-05-15T09:30:48.795Z,996.08
2023-05-15T09:31:48.881Z,996.08
2023-05-15T09:32:48.840Z,996.03
2023-05-15T09:33:48.750Z,996.07
2023-05-15T09:34:48.755Z,996.05
2023-05-15T09:35:48.759Z,996.06
2023-05-15T09:36:48.727Z,996.04
2023-05-15T09:37:48.707Z,995.96
2023-05-15T09:38:48.720Z,995.98
2023-05-15T09:39:48.723Z,996.01
2023-05-15T09:40:48.711Z,996.04
2023-05-15T09:41:48.710Z,995.99
2023-05-15T09:42:48.667Z,996.01
2023-05-15T09:43:48.680Z,996.01
2023-05-15T09:44:48.624Z,996.01
2023-05-15T09:45:48.656Z,996.02
2023-05-15T09:46:48.728Z,995.95
2023-05-15T09:47:48.732Z,996.03
2023-05-15T09:48:48.671Z,995.98
2023-05-15T09:49:48.582Z,996.01
2023-05-15T09:50:48.580Z,995.99
2023-05-15T09:51:48.576Z,995.98
2023-05-15T09:52:48.565Z,995.95
2023-05-15T09:53:48.547Z,995.95
2023-05-15T09:54:50.407Z,995.94
2023-05-15T09:55:48.522Z,995.96
2023-05-15T09:56:48.501Z,995.95
2023-05-15T09:57:48.497Z,995.95
2023-05-15T09:58:48.492Z,995.89
2023-05-15T09:59:48.479Z,995.93
2023-05-15T10:00:49.582Z,995.89
2023-05-15T10:01:48.490Z,995.87
2023-05-15T10:02:48.489Z,995.90
2023-05-15T10:03:48.444Z,995.85
2023-05-15T10:04:48.445Z,995.87
2023-05-15T10:05:48.518Z,995.85
2023-05-15T10:06:48.412Z,995.86
2023-05-15T10:07:48.393Z,995.92
2023-05-15T10:08:48.401Z,995.85
2023-05-15T10:09:48.370Z,995.86
2023-05-15T10:10:48.342Z,995.86
2023-05-15T10:11:48.357Z,995.88
2023-05-15T10:12:48.429Z,995.85
2023-05-15T10:13:48.330Z,995.90
2023-05-15T10:14:48.305Z,995.98
2023-05-15T10:15:48.330Z,995.92
2023-05-15T10:16:48.304Z,995.94
2023-05-15T10:17:48.335Z,995.95
2023-05-15T10:18:48.293Z,995.95
2023-05-15T10:19:57.786Z,995.91
2023-05-15T10:20:49.239Z,995.90
2023-05-15T10:21:48.253Z,995.89
2023-05-15T10:22:48.289Z,995.81
2023-05-15T10:23:48.252Z,995.89
2023-05-15T10:24:48.198Z,995.91
2023-05-15T10:25:48.189Z,995.82
2023-05-15T10:26:48.195Z,995.82
2023-05-15T10:27:48.232Z,995.85
2023-05-15T10:28:48.181Z,995.85
2023-05-15T10:29:48.198Z,995.81
2023-05-15T10:30:48.140Z,995.93
2023-05-15T10:31:48.212Z,995.89
2023-05-15T10:32:48.166Z,995.84
2023-05-15T10:33:48.093Z,995.90
2023-05-15T10:34:48.076Z,995.87
2023-05-15T10:35:48.094Z,995.89
2023-05-15T10:36:48.063Z,995.80
2023-05-15T10:37:48.059Z,995.77
2023-05-15T10:38:48.055Z,995.80
2023-05-15T10:39:48.053Z,995.75
2023-05-15T10:40:48.043Z,995.76
2023-05-15T10:41:48.023Z,995.73
2023-05-15T10:42:48.001Z,995.71
2023-05-15T10:43:47.996Z,995.67
2023-05-15T10:44:47.991Z,995.62
2023-05-15T10:45:47.958Z,995.62
2023-05-15T10:46:48.035Z,995.67
2023-05-15T10:47:48.168Z,995.67
2023-05-15T10:48:47.932Z,995.63
2023-05-15T10:49:47.929Z,995.65
2023-05-15T10:50:47.940Z,995.63
2023-05-15T10:51:47.893Z,995.66
2023-05-15T10:52:47.895Z,995.60
2023-05-15T10:53:47.884Z,995.61
2023-05-15T10:54:47.893Z,995.63
2023-05-15T10:55:47.974Z,995.60
2023-05-15T10:56:49.357Z,995.56
2023-05-15T10:57:47.830Z,995.51
2023-05-15T10:58:47.820Z,995.46
2023-05-15T10:59:47.819Z,995.47
2023-05-15T11:00:47.804Z,995.46
2023-05-15T11:01:47.813Z,995.45
2023-05-15T11:02:47.836Z,995.51
2023-05-15T11:03:49.421Z,995.49
2023-05-15T11:04:47.872Z,995.43
2023-05-15T11:05:47.749Z,995.46
2023-05-15T11:06:47.768Z,995.48
2023-05-15T11:07:47.743Z,995.44
2023-05-15T11:08:47.747Z,995.41
2023-05-15T11:09:47.698Z,995.44
2023-05-15T11:10:47.740Z,995.28
2023-05-15T11:11:47.692Z,995.35
2023-05-15T11:12:47.700Z,995.30
2023-05-15T11:13:47.664Z,995.35
2023-05-15T11:14:47.640Z,995.40
2023-05-15T11:15:47.633Z,995.34
2023-05-15T11:16:47.697Z,995.30
2023-05-15T11:17:47.652Z,995.37
2023-05-15T11:18:47.656Z,995.30
2023-05-15T11:19:47.609Z,995.34
2023-05-15T11:20:47.618Z,995.30
2023-05-15T11:21:47.579Z,995.34
2023-05-15T11:22:47.563Z,995.25
2023-05-15T11:23:47.546Z,995.28
2023-05-15T11:24:47.543Z,995.23
2023-05-15T11:25:47.543Z,995.25
2023-05-15T11:26:47.575Z,995.21
2023-05-15T11:27:47.526Z,995.22
2023-05-15T11:28:47.500Z,995.25
2023-05-15T11:29:47.478Z,995.26
2023-05-15T11:30:47.493Z,995.28
2023-05-15T11:31:47.481Z,995.23
2023-05-15T11:32:47.551Z,995.19
2023-05-15T11:33:47.432Z,995.21
2023-05-15T11:34:47.441Z,995.18
2023-05-15T11:35:47.419Z,995.18
2023-05-15T11:36:47.494Z,995.16
2023-05-15T11:37:47.399Z,995.16
2023-05-15T11:38:47.405Z,995.16
2023-05-15T11:39:47.372Z,995.15
2023-05-15T11:40:47.409Z,995.22
2023-05-15T11:41:47.359Z,995.19
2023-05-15T11:42:47.377Z,995.15
2023-05-15T11:43:47.368Z,995.19
2023-05-15T11:44:47.317Z,995.15
2023-05-15T11:45:47.304Z,995.17
2023-05-15T11:46:47.368Z,995.16
2023-05-15T11:47:47.347Z,995.11
2023-05-15T11:48:47.297Z,995.20
2023-05-15T11:49:47.302Z,995.12
2023-05-15T11:50:47.266Z,995.15
2023-05-15T11:51:47.280Z,995.15
2023-05-15T11:52:47.254Z,995.19
2023-05-15T11:53:47.277Z,995.09
2023-05-15T11:54:47.235Z,995.11
2023-05-15T11:55:47.196Z,995.09
2023-05-15T11:56:47.197Z,995.10
2023-05-15T11:57:47.174Z,995.15
2023-05-15T11:58:47.218Z,995.17
2023-05-15T11:59:47.221Z,995.17
2023-05-15T12:00:47.158Z,995.20
2023-05-15T12:01:47.142Z,995.24
2023-05-15T12:02:47.177Z,995.24
2023-05-15T12:03:47.330Z,995.26
2023-05-15T12:04:47.140Z,995.30
2023-05-15T12:05:57.587Z,995.19
2023-05-15T12:06:48.103Z,995.29
2023-05-15T12:07:47.111Z,995.17
2023-05-15T12:08:47.079Z,995.25
2023-05-15T12:09:47.053Z,995.23
2023-05-15T12:10:47.053Z,995.23
2023-05-15T12:11:47.045Z,995.24
2023-05-15T12:12:47.036Z,995.26
2023-05-15T12:13:55.345Z,995.25
2023-05-15T12:14:47.008Z,995.19
2023-05-15T12:15:47.009Z,995.23
2023-05-15T12:16:46.989Z,995.21
2023-05-15T12:17:47.073Z,995.21
2023-05-15T12:18:46.965Z,995.23
2023-05-15T12:19:46.962Z,995.29
2023-05-15T12:20:46.953Z,995.23
2023-05-15T12:21:46.932Z,995.22
2023-05-15T12:22:46.931Z,995.17
2023-05-15T12:23:53.303Z,995.17
2023-05-15T12:24:47.900Z,995.19
2023-05-15T12:25:46.899Z,995.17
2023-05-15T12:26:46.864Z,995.16
2023-05-15T12:27:46.867Z,995.12
2023-05-15T12:28:46.881Z,995.13